Thunderstorms From: 21-05-2018 15:00 Until: 22-05-2018 15:00 warning for: Thunderstorms Level: Yellow info button

Although rather usual in this region, locally or potentially dangerous phenomena are expected. (such as local winds, summer thunderstorms, rising streams or high waves) Be aware and pay attention to the latest weather updates, especially if you carry out activities exposed to weather or close to a stream or shoreline. 


Meteo18 Weather Cam more information Meteo18 Weather Cam


warning for Thunderstorms more information blitzortung!


Rain radar more information rain snow radar


Visit our other weather sites:

Template documentation
and downloads

And another site



Weather Underground History page Text

Daily Summary for April 29, 2017 Units:  Metric    English   Both
« Previous Day
Next Day »
Daily Weekly Monthly Yearly Custom
  High: Low: Average:
Temperature: -17.8 °C -17.3 °C -12.4 °C
Dew Point: -17.8 °C -17.7 °C -16.1 °C
Humidity: Humidity % 38 % 67 %
Wind Speed: 0 km/h 0 km/h 5 km/h
Wind Gust: 0 km/h - -
Wind:- - ESE
Pressure: 0 hPa 34212.1 hPa -
Precipitation: 0 mm    
Historical Graphs
 
 
Tabular Data for April 29, 2017
Time Temperature Dew Point Pressure Wind Wind Speed Wind Gust Humidity Rainfall Rate (Hourly)
-17.8 °C -17.8 °C 0 hPa Calm     Humidity % 0 mm
00:02 -14.7 °C -15.7 °C 34510.1 hPa Calm   2.6 km/h 89 % 0 mm
00:12 -14.7 °C -15.6 °C 34510.1 hPa Calm   2.6 km/h 90 % 0 mm
00:17 -14.7 °C -15.6 °C 34520.3 hPa Calm   2.6 km/h 90 % 0 mm
00:22 -14.7 °C -15.5 °C 34520.3 hPa Calm   2.6 km/h 90 % 0 mm
00:32 -14.7 °C -15.6 °C 34520.3 hPa Calm     89 % 0 mm
00:42 -14.7 °C -15.6 °C 34510.1 hPa Calm   2.6 km/h 90 % 0 mm
00:52 -14.8 °C -15.6 °C 34520.3 hPa Calm   2.6 km/h 90 % 0 mm
00:57 -14.8 °C -15.6 °C 34510.1 hPa Calm     90 % 0 mm
01:02 -14.8 °C -15.7 °C 34510.1 hPa Calm     90 % 0 mm
01:12 -14.9 °C -15.7 °C 34510.1 hPa Calm     91 % 0 mm
01:17 -14.9 °C -15.7 °C 34510.1 hPa Calm     91 % 0 mm
01:22 -14.9 °C -15.7 °C 34510.1 hPa Calm     91 % 0 mm
01:27 -15.1 °C -15.8 °C 34510.1 hPa Calm     91 % 0 mm
01:37 -15.2 °C -15.9 °C 34510.1 hPa Calm   2.6 km/h 91 % 0 mm
01:42 -15.3 °C -16.1 °C 34510.1 hPa Calm   2.6 km/h 91 % 0 mm
01:47 -15.4 °C -16.1 °C 34510.1 hPa Calm     91 % 0 mm
01:52 -15.4 °C -16.1 °C 34510.1 hPa Calm     92 % 0 mm
01:57 -15.4 °C -16.1 °C 34510.1 hPa Calm     92 % 0 mm
02:02 -15.3 °C -16 °C 34496.6 hPa Calm     92 % 0 mm
02:12 -15.4 °C -16.1 °C 34510.1 hPa Calm     92 % 0 mm
02:17 -15.4 °C -16.1 °C 34496.6 hPa Calm     92 % 0 mm
02:22 -15.4 °C -16 °C 34510.1 hPa Calm     93 % 0 mm
02:32 -15.4 °C -16 °C 34496.6 hPa Calm     93 % 0 mm
02:37 -15.5 °C -16.1 °C 34510.1 hPa Calm     93 % 0 mm
02:42 -15.5 °C -16.1 °C 34496.6 hPa Calm     93 % 0 mm
02:52 -15.6 °C -16.2 °C 34496.6 hPa Calm     93 % 0 mm
02:57 -15.8 °C -16.4 °C 34496.6 hPa Calm     92 % 0 mm
03:02 -15.8 °C -16.3 °C 34496.6 hPa WNW 2.6 km/h   93 % 0 mm
03:07 -15.8 °C -16.4 °C 34496.6 hPa Calm   2.6 km/h 93 % 0 mm
03:12 -15.8 °C -16.3 °C 34496.6 hPa Calm   2.6 km/h 94 % 0 mm
03:17 -15.6 °C -16.1 °C 34496.6 hPa Calm   2.6 km/h 94 % 0 mm
03:22 -15.6 °C -16.1 °C 34496.6 hPa Calm   2.6 km/h 94 % 0 mm
03:27 -15.7 °C -16.2 °C 34496.6 hPa Calm   2.6 km/h 94 % 0 mm
03:32 -15.8 °C -16.3 °C 34496.6 hPa Calm   2.6 km/h 94 % 0 mm
03:42 -16 °C -16.6 °C 34496.6 hPa Calm     93 % 0 mm
03:52 -15.9 °C -16.3 °C 34496.6 hPa Calm     95 % 0 mm
03:57 -16 °C -16.5 °C 34496.6 hPa Calm     94 % 0 mm
04:02 -15.9 °C -16.3 °C 34496.6 hPa Calm     95 % 0 mm
04:12 -16.1 °C -16.6 °C 34496.6 hPa Calm     94 % 0 mm
04:17 -16.1 °C -16.4 °C 34496.6 hPa North 2.6 km/h 2.6 km/h 95 % 0 mm
04:22 -16 °C -16.4 °C 34496.6 hPa Calm   5.1 km/h 95 % 0 mm
04:32 -16.2 °C -16.7 °C 34496.6 hPa Calm   5.1 km/h 94 % 0 mm
04:37 -16.2 °C -16.6 °C 34496.6 hPa NW 2.6 km/h 2.6 km/h 95 % 0 mm
04:42 -16.2 °C -16.6 °C 34496.6 hPa Calm   2.6 km/h 95 % 0 mm
04:47 -16.3 °C -16.7 °C 34496.6 hPa Calm   2.6 km/h 95 % 0 mm
04:52 -16.4 °C -16.9 °C 34496.6 hPa Calm   2.6 km/h 94 % 0 mm
04:57 -16.5 °C -17 °C 34496.6 hPa Calm   2.6 km/h 94 % 0 mm
05:02 -16.4 °C -16.8 °C 34496.6 hPa Calm     95 % 0 mm
05:12 -16.7 °C -17.2 °C 34486.4 hPa Calm   2.6 km/h 94 % 0 mm
05:17 -16.7 °C -17.1 °C 34486.4 hPa WNW 2.6 km/h 2.6 km/h 95 % 0 mm
05:22 -16.6 °C -17 °C 34486.4 hPa Calm   2.6 km/h 95 % 0 mm
05:32 -16.7 °C -17.1 °C 34486.4 hPa WNW 2.6 km/h 2.6 km/h 95 % 0 mm
05:37 -16.6 °C -17 °C 34486.4 hPa WNW 2.6 km/h 2.6 km/h 95 % 0 mm
05:42 -16.6 °C -17 °C 34486.4 hPa Calm   2.6 km/h 95 % 0 mm
05:52 -16.5 °C -16.8 °C 34486.4 hPa Calm   2.6 km/h 96 % 0 mm
05:57 -16.6 °C -16.9 °C 34486.4 hPa Calm   2.6 km/h 95 % 0 mm
06:02 -16.6 °C -16.9 °C 34486.4 hPa Calm   2.6 km/h 95 % 0 mm
06:12 -16.6 °C -16.9 °C 34486.4 hPa NNE 2.6 km/h 2.6 km/h 96 % 0 mm
06:17 -16.9 °C -17.4 °C 34476.3 hPa Calm   2.6 km/h 94 % 0 mm
06:22 -17.1 °C -17.5 °C 34486.4 hPa Calm   2.6 km/h 95 % 0 mm
06:32 -17.1 °C -17.5 °C 34486.4 hPa Calm   2.6 km/h 95 % 0 mm
06:37 -17.3 °C -17.7 °C 34486.4 hPa Calm     95 % 0 mm
06:42 -17.3 °C -17.7 °C 34476.3 hPa Calm     95 % 0 mm
06:47 -17.3 °C -17.7 °C 34476.3 hPa Calm     95 % 0 mm
06:52 -17.3 °C -17.7 °C 34476.3 hPa Calm     96 % 0 mm
07:02 -17.2 °C -17.5 °C 34476.3 hPa Calm     96 % 0 mm
07:07 -17.2 °C -17.5 °C 34476.3 hPa Calm     96 % 0 mm
07:12 -17.2 °C -17.5 °C 34476.3 hPa Calm     96 % 0 mm
07:17 -17.2 °C -17.6 °C 34476.3 hPa Calm     95 % 0 mm
07:22 -17.1 °C -17.4 °C 34476.3 hPa Calm     95 % 0 mm
07:27 -17.1 °C -17.5 °C 34476.3 hPa Calm     95 % 0 mm
07:32 -17.1 °C -17.5 °C 34476.3 hPa Calm     95 % 0 mm
07:42 -16.7 °C -17.1 °C 34476.3 hPa Calm     96 % 0 mm
07:52 -16.6 °C -17 °C 34476.3 hPa Calm     95 % 0 mm
08:02 -16.4 °C -16.8 °C 34476.3 hPa Calm     95 % 0 mm
08:12 -16.4 °C -16.8 °C 34476.3 hPa NNE 2.6 km/h 2.6 km/h 95 % 0 mm
08:22 -16.2 °C -16.6 °C 34476.3 hPa Calm   5.1 km/h 95 % 0 mm
08:32 -15.6 °C -15.9 °C 34486.4 hPa Calm     96 % 0 mm
08:37 -15.3 °C -15.6 °C 34486.4 hPa Calm     96 % 0 mm
08:42 -14.8 °C -15.2 °C 34476.3 hPa Calm     96 % 0 mm
08:47 -14.6 °C -15 °C 34476.3 hPa Calm     95 % 0 mm
08:52 -14.5 °C -15 °C 34476.3 hPa Calm     94 % 0 mm
09:02 -14.3 °C -14.8 °C 34476.3 hPa Calm     93 % 0 mm
09:07 -13.9 °C -14.6 °C 34476.3 hPa Calm     92 % 0 mm
09:12 -13.8 °C -14.9 °C 34476.3 hPa Calm     88 % 0 mm
09:17 -13.7 °C -14.7 °C 34476.3 hPa Calm     88 % 0 mm
09:27 -13.4 °C -14.9 °C 34476.3 hPa Calm     83 % 0 mm
09:32 -13.4 °C -15 °C 34476.3 hPa Calm     82 % 0 mm
09:37 -13.2 °C -14.9 °C 34476.3 hPa Calm     81 % 0 mm
09:42 -13.1 °C -14.8 °C 34476.3 hPa Calm   2.6 km/h 81 % 0 mm
09:47 -13 °C -14.8 °C 34476.3 hPa ENE 5.1 km/h 5.1 km/h 80 % 0 mm
09:52 -12.9 °C -14.8 °C 34476.3 hPa Calm   7.7 km/h 80 % 0 mm
10:02 -12.6 °C -14.6 °C 34476.3 hPa SE 5.1 km/h 7.7 km/h 79 % 0 mm
10:12 -12.4 °C -14.7 °C 34476.3 hPa ENE 5.1 km/h 5.1 km/h 76 % 0 mm
10:17 -12.4 °C -14.6 °C 34476.3 hPa NE 5.1 km/h 5.1 km/h 76 % 0 mm
10:22 -12.4 °C -14.7 °C 34476.3 hPa ENE 2.6 km/h 10.3 km/h 75 % 0 mm
10:27 -12.1 °C -14.4 °C 34462.7 hPa East 5.1 km/h 10.3 km/h 75 % 0 mm
10:32 -12.1 °C -14.6 °C 34462.7 hPa ESE 5.1 km/h 10.3 km/h 73 % 0 mm
10:42 -11.9 °C -14.6 °C 34462.7 hPa Calm   12.9 km/h 72 % 0 mm
10:47 -11.6 °C -14.6 °C 34462.7 hPa SE 7.7 km/h 12.9 km/h 70 % 0 mm
10:52 -11.5 °C -14.4 °C 34462.7 hPa SSW 5.1 km/h 15.6 km/h 70 % 0 mm
11:02 -11.2 °C -14.3 °C 34462.7 hPa ESE 5.1 km/h 15.6 km/h 68 % 0 mm
11:12 -11.2 °C -14.5 °C 34462.7 hPa East 5.1 km/h 20.8 km/h 67 % 0 mm
11:17 -11.1 °C -14.2 °C 34462.7 hPa Calm   20.8 km/h 69 % 0 mm
11:22 -10.9 °C -14.4 °C 34462.7 hPa SW 5.1 km/h 18.2 km/h 65 % 0 mm
11:32 -10.6 °C -14.4 °C 34462.7 hPa SE 10.3 km/h 15.6 km/h 63 % 0 mm
11:42 -10.4 °C -14.7 °C 34462.7 hPa ESE 7.7 km/h 23.3 km/h 59 % 0 mm
11:47 -10.4 °C -14.6 °C 34452.6 hPa East 12.9 km/h 23.3 km/h 61 % 0 mm
11:52 -10.3 °C -14.6 °C 34452.6 hPa SW 5.1 km/h 18.2 km/h 60 % 0 mm
11:57 -10.1 °C -15.1 °C 34452.6 hPa SE 10.3 km/h 18.2 km/h 55 % 0 mm
12:02 -10.3 °C -14.9 °C 34452.6 hPa East 2.6 km/h 18.2 km/h 57 % 0 mm
12:12 -10.3 °C -15.3 °C 34452.6 hPa South 7.7 km/h 23.3 km/h 55 % 0 mm
12:17 -10.2 °C -15 °C 34452.6 hPa SE 2.6 km/h 23.3 km/h 56 % 0 mm
12:22 -10.2 °C -15.4 °C 34442.4 hPa SE 5.1 km/h 23.3 km/h 53 % 0 mm
12:32 -10.1 °C -15.6 °C 34442.4 hPa SE 10.3 km/h 23.3 km/h 51 % 0 mm
12:37 -10.1 °C -15.8 °C 34442.4 hPa East 7.7 km/h 23.3 km/h 50 % 0 mm
12:42 -9.8 °C -15.9 °C 34442.4 hPa SSW 23.3 km/h 23.3 km/h 48 % 0 mm
12:47 -9.8 °C -15.2 °C 34442.4 hPa NE 2.6 km/h 20.8 km/h 52 % 0 mm
12:52 -9.7 °C -14.8 °C 34442.4 hPa East 12.9 km/h 25.9 km/h 54 % 0 mm
13:02 -9.8 °C -15.2 °C 34428.8 hPa East 18.2 km/h 25.9 km/h 52 % 0 mm
13:07 -9.9 °C -15.7 °C 34428.8 hPa East 12.9 km/h 25.9 km/h 50 % 0 mm
13:12 -9.8 °C -15.8 °C 34428.8 hPa South 12.9 km/h 25.9 km/h 48 % 0 mm
13:17 -9.7 °C -15.9 °C 34418.7 hPa SE 5.1 km/h 25.9 km/h 47 % 0 mm
13:22 -9.6 °C -16.6 °C 34418.7 hPa East 5.1 km/h 28.5 km/h 43 % 0 mm
13:32 -9.4 °C -15.9 °C 34418.7 hPa SSW 12.9 km/h 20.8 km/h 45 % 0 mm
13:37 -9.6 °C -15.8 °C 34418.7 hPa East 10.3 km/h 20.8 km/h 47 % 0 mm
13:42 -9.4 °C -16.2 °C 34405.1 hPa East 15.6 km/h 23.3 km/h 44 % 0 mm
13:52 -9.6 °C -16.6 °C 34405.1 hPa ENE 5.1 km/h 23.3 km/h 43 % 0 mm
14:02 -9.3 °C -16.2 °C 34395 hPa East 12.9 km/h 25.9 km/h 43 % 0 mm
14:12 -9.5 °C -16.1 °C 34395 hPa NE 7.7 km/h 25.9 km/h 45 % 0 mm
14:17 -9.6 °C -16 °C 34395 hPa East 2.6 km/h 25.9 km/h 46 % 0 mm
14:22 -9.7 °C -15.7 °C 34395 hPa ENE 5.1 km/h 25.9 km/h 48 % 0 mm
14:32 -9.8 °C -15.7 °C 34384.8 hPa ENE 7.7 km/h 28.5 km/h 49 % 0 mm
14:42 -9.8 °C -15.3 °C 34384.8 hPa SSE 10.3 km/h 28.5 km/h 51 % 0 mm
14:52 -9.4 °C -15.6 °C 34384.8 hPa ESE 10.3 km/h 28.5 km/h 47 % 0 mm
15:02 -9.6 °C -15.6 °C 34371.3 hPa East 2.6 km/h 18.2 km/h 48 % 0 mm
15:12 -9.7 °C -15.9 °C 34371.3 hPa South 7.7 km/h 15.6 km/h 47 % 0 mm
15:17 -9.4 °C -15.6 °C 34371.3 hPa East 12.9 km/h 25.9 km/h 47 % 0 mm
15:22 -9.4 °C -15.8 °C 34371.3 hPa East 18.2 km/h 25.9 km/h 46 % 0 mm
15:32 -9.2 °C -15.8 °C 34361.1 hPa ESE 7.7 km/h 25.9 km/h 45 % 0 mm
15:37 -8.9 °C -15.4 °C 34361.1 hPa SSW 12.9 km/h 25.9 km/h 46 % 0 mm
15:42 -9 °C -15.4 °C 34361.1 hPa ESE 12.9 km/h 25.9 km/h 46 % 0 mm
15:47 -8.8 °C -15.6 °C 34361.1 hPa ESE 7.7 km/h 28.5 km/h 44 % 0 mm
15:52 -8.4 °C -15.8 °C 34347.6 hPa ESE 18.2 km/h 33.6 km/h 41 % 0 mm
15:57 -8.6 °C -15.8 °C 34347.6 hPa SE 18.2 km/h 33.6 km/h 42 % 0 mm
16:02 -8.8 °C -15.8 °C 34347.6 hPa ENE 7.7 km/h 33.6 km/h 43 % 0 mm
16:07 -9.1 °C -15.7 °C 34347.6 hPa ESE 2.6 km/h 38.8 km/h 45 % 0 mm
16:12 -9 °C -15.4 °C 34347.6 hPa ESE 5.1 km/h 38.8 km/h 46 % 0 mm
16:17 -8.7 °C -15.9 °C 34337.4 hPa SSE 5.1 km/h 38.8 km/h 42 % 0 mm
16:22 -8.8 °C -16 °C 34337.4 hPa ESE 10.3 km/h 28.5 km/h 42 % 0 mm
16:27 -8.9 °C -15.7 °C 34337.4 hPa East 10.3 km/h 23.3 km/h 44 % 0 mm
16:32 -8.8 °C -15.7 °C 34337.4 hPa East 15.6 km/h 23.3 km/h 44 % 0 mm
16:42 -8.6 °C -15.8 °C 34327.3 hPa ENE 7.7 km/h 23.3 km/h 42 % 0 mm
16:47 -8.4 °C -16 °C 34327.3 hPa SSE 5.1 km/h 28.5 km/h 40 % 0 mm
16:52 -8.3 °C -15.9 °C 34313.7 hPa SSE 5.1 km/h 28.5 km/h 40 % 0 mm
16:57 -8.4 °C -15.8 °C 34313.7 hPa SE 20.8 km/h 25.9 km/h 41 % 0 mm
17:02 -8.5 °C -15.9 °C 34313.7 hPa SSE 10.3 km/h 38.8 km/h 41 % 0 mm
17:12 -8.6 °C -15.6 °C 34313.7 hPa ESE 5.1 km/h 38.8 km/h 43 % 0 mm
17:17 -8.6 °C -15.9 °C 34303.6 hPa East 18.2 km/h 31.1 km/h 41 % 0 mm
17:22 -8.6 °C -16.2 °C 34303.6 hPa SE 12.9 km/h 41.4 km/h 40 % 0 mm
17:27 -8.6 °C -15.9 °C 34303.6 hPa SW 12.9 km/h 41.4 km/h 41 % 0 mm
17:32 -8.5 °C -15.9 °C 34303.6 hPa ENE 10.3 km/h 41.4 km/h 41 % 0 mm
17:37 -8.5 °C -16.1 °C 34303.6 hPa ESE 25.9 km/h 36.2 km/h 40 % 0 mm
17:42 -8.6 °C -16.2 °C 34303.6 hPa SE 15.6 km/h 36.2 km/h 40 % 0 mm
17:52 -8.5 °C -15.7 °C 34293.4 hPa ESE 2.6 km/h 33.6 km/h 42 % 0 mm
17:57 -8.4 °C -15.8 °C 34293.4 hPa East 7.7 km/h 36.2 km/h 41 % 0 mm
18:02 -8.5 °C -15.9 °C 34293.4 hPa East 10.3 km/h 36.2 km/h 41 % 0 mm
18:07 -8.6 °C -16.2 °C 34293.4 hPa East 12.9 km/h 33.6 km/h 40 % 0 mm
18:12 -8.6 °C -15.9 °C 34293.4 hPa SE 7.7 km/h 33.6 km/h 41 % 0 mm
18:17 -8.6 °C -16.2 °C 34293.4 hPa SSE 7.7 km/h 36.2 km/h 40 % 0 mm
18:22 -8.4 °C -16.4 °C 34293.4 hPa ESE 20.8 km/h 36.2 km/h 38 % 0 mm
18:32 -8.6 °C -16.3 °C 34279.9 hPa East 5.1 km/h 28.5 km/h 39 % 0 mm
18:42 -8.6 °C -16.3 °C 34279.9 hPa SSE 10.3 km/h 31.1 km/h 39 % 0 mm
18:47 -8.6 °C -16.3 °C 34269.7 hPa SE 7.7 km/h 25.9 km/h 39 % 0 mm
18:52 -8.6 °C -16.6 °C 34269.7 hPa ESE 7.7 km/h 25.9 km/h 38 % 0 mm
19:02 -8.7 °C -16.5 °C 34269.7 hPa SE 23.3 km/h 28.5 km/h 39 % 0 mm
19:12 -8.7 °C -16.5 °C 34269.7 hPa ESE 7.7 km/h 28.5 km/h 39 % 0 mm
19:17 -8.8 °C -16.6 °C 34269.7 hPa SSE 7.7 km/h 23.3 km/h 39 % 0 mm
19:22 -8.8 °C -16.6 °C 34256.2 hPa ESE 12.9 km/h 31.1 km/h 39 % 0 mm
19:27 -8.8 °C -16.6 °C 34256.2 hPa East 10.3 km/h 31.1 km/h 39 % 0 mm
19:32 -8.9 °C -16.9 °C 34256.2 hPa South 18.2 km/h 31.1 km/h 38 % 0 mm
19:42 -9.1 °C -16.8 °C 34256.2 hPa ESE 12.9 km/h 31.1 km/h 39 % 0 mm
19:47 -9.1 °C -16.7 °C 34256.2 hPa SE 7.7 km/h 31.1 km/h 40 % 0 mm
19:52 -9.2 °C -16.7 °C 34256.2 hPa SE 2.6 km/h 31.1 km/h 40 % 0 mm
19:57 -9.3 °C -16.6 °C 34256.2 hPa ESE 10.3 km/h 25.9 km/h 41 % 0 mm
20:02 -9.4 °C -16.5 °C 34256.2 hPa ENE 5.1 km/h 23.3 km/h 42 % 0 mm
20:12 -9.6 °C -16.6 °C 34256.2 hPa ESE 5.1 km/h 20.8 km/h 43 % 0 mm
20:17 -9.7 °C -16.4 °C 34256.2 hPa SE 2.6 km/h 18.2 km/h 44 % 0 mm
20:27 -9.9 °C -16.6 °C 34246 hPa SE 7.7 km/h 12.9 km/h 44 % 0 mm
20:32 -9.9 °C -16.8 °C 34246 hPa ESE 5.1 km/h 10.3 km/h 43 % 0 mm
20:42 -10.2 °C -16.7 °C 34246 hPa East 10.3 km/h 15.6 km/h 45 % 0 mm
20:52 -10.4 °C -16.8 °C 34246 hPa East 7.7 km/h 15.6 km/h 46 % 0 mm
20:57 -10.5 °C -16.8 °C 34246 hPa ENE 5.1 km/h 12.9 km/h 46 % 0 mm
21:02 -10.6 °C -16.7 °C 34246 hPa East 10.3 km/h 15.6 km/h 47 % 0 mm
21:12 -10.8 °C -16.7 °C 34246 hPa East 7.7 km/h 15.6 km/h 48 % 0 mm
21:17 -10.8 °C -16.7 °C 34246 hPa East 7.7 km/h 15.6 km/h 48 % 0 mm
21:22 -10.8 °C -16.8 °C 34246 hPa East 5.1 km/h 15.6 km/h 48 % 0 mm
21:32 -10.9 °C -17 °C 34246 hPa ESE 2.6 km/h 15.6 km/h 47 % 0 mm
21:42 -10.9 °C -16.9 °C 34246 hPa East 5.1 km/h 12.9 km/h 48 % 0 mm
21:47 -10.9 °C -16.9 °C 34246 hPa East 5.1 km/h 12.9 km/h 48 % 0 mm
21:52 -11 °C -16.9 °C 34246 hPa East 5.1 km/h 12.9 km/h 48 % 0 mm
21:57 -11 °C -16.9 °C 34246 hPa ENE 5.1 km/h 12.9 km/h 48 % 0 mm
22:02 -11.1 °C -16.8 °C 34246 hPa ENE 5.1 km/h 15.6 km/h 49 % 0 mm
22:07 -11.2 °C -16.8 °C 34246 hPa ENE 5.1 km/h 15.6 km/h 50 % 0 mm
22:12 -11.2 °C -16.8 °C 34235.8 hPa ENE 5.1 km/h 15.6 km/h 50 % 0 mm
22:17 -11.2 °C -16.8 °C 34235.8 hPa ENE 7.7 km/h 15.6 km/h 50 % 0 mm
22:22 -11.3 °C -16.9 °C 34235.8 hPa ENE 5.1 km/h 12.9 km/h 50 % 0 mm
22:27 -11.4 °C -16.9 °C 34235.8 hPa ENE 5.1 km/h 15.6 km/h 51 % 0 mm
22:32 -11.5 °C -16.8 °C 34235.8 hPa ENE 5.1 km/h 15.6 km/h 52 % 0 mm
22:42 -11.7 °C -16.8 °C 34235.8 hPa ENE 5.1 km/h 15.6 km/h 53 % 0 mm
22:47 -11.8 °C -16.8 °C 34235.8 hPa ENE 5.1 km/h 15.6 km/h 54 % 0 mm
22:52 -11.9 °C -16.8 °C 34235.8 hPa NE 7.7 km/h 15.6 km/h 55 % 0 mm
23:02 -12 °C -16.8 °C 34235.8 hPa NE 7.7 km/h 12.9 km/h 55 % 0 mm
23:07 -12.1 °C -16.7 °C 34235.8 hPa NE 10.3 km/h 10.3 km/h 56 % 0 mm
23:12 -12.2 °C -16.7 °C 34235.8 hPa NE 7.7 km/h 10.3 km/h 57 % 0 mm
23:17 -12.3 °C -16.7 °C 34235.8 hPa NE 7.7 km/h 12.9 km/h 58 % 0 mm
23:22 -12.4 °C -16.8 °C 34222.3 hPa NE 7.7 km/h 12.9 km/h 58 % 0 mm
23:32 -12.4 °C -16.6 °C 34222.3 hPa NE 7.7 km/h 12.9 km/h 59 % 0 mm
23:37 -12.4 °C -16.6 °C 34222.3 hPa NE 5.1 km/h 12.9 km/h 59 % 0 mm
23:42 -12.4 °C -16.7 °C 34222.3 hPa NE 5.1 km/h 12.9 km/h 59 % 0 mm
23:47 -12.5 °C -16.6 °C 34222.3 hPa NE 2.6 km/h 10.3 km/h 60 % 0 mm
23:52 -12.6 °C -16.7 °C 34212.1 hPa NE 5.1 km/h 10.3 km/h 60 % 0 mm
23:57 -12.6 °C -16.7 °C 34212.1 hPa NE 5.1 km/h 10.3 km/h 60 % 0 mm
Meteo18
Compliments of Weather Underground - 4 mb

Script developed by  Jim McMurry - jmcmurry@mwt.net Adapted for the template by  Wim van der Kuil - Leuven-Template.eu

You find our weather info also at:

European Weather Network

Weather Underground

Equipment we use:

Weather-station
Davis Vue

Weather-program
Meteobridge

Weather-server
Raspberry PI 2 B+

Provider
1 and 1

Davis Vue

Meteobridge

Raspberry PI 2 B+

1 and 1